Miccosukee, Florida
Current Conditions -  °F | °C
As of 10:53 AM on Monday 24 Nov 2014 (Local Time) from KTLH Reporting Station
Overcast Overcast  
Wind Chill: 24°   Ceiling: 700
Heat Index: 24°   Visibility: 10mi
Dew Point: 22°   Wind: 8mph
Humidity: 85%   Direction: 210°SSW
Pressure: 29.88"   Gusts: NA
Location:  30.59°N, 84.04°W
Report Text: KTLH 241453Z 21007KT 10SM BKN007 OVC013 24/22 A2988 RMK AO2 RAE08 CIG 005V011 SLP117 P0002 60012 T02440217 53017 $
Loading
Personal Weather Stations






























Interactive Weather Map New forecast layout! Learn more

10-Day Weather Forecast

Advertisements
Track Severe Weather on mobile